CheckWX is a tool to help pilots better visualize weather data.  It is not intended as a substitute for an official pre-flight weather briefing.

12:24:33 UTC

KDRT TAF
Del Rio International Airport
Del Rio, Texas, USA
KDRT 221120Z 2212/2312 12009KT P6SM OVC060 FM221400 13016KT P6SM OVC025 FM221700 14018KT P6SM OVC050 FM230000 12016KT P6SM VCTS BKN025CB OVC050 FM230500 12014KT P6SM BKN015

Mar-22@
12:00 UTC

Mar-22 @ 12:00 UTC

Mar-22@
14:00 UTC

Mar-22 @ 14:00 UTC

KDRT 221120Z 2212/2312 12009KT P6SM OVC060
Wind
  • 120° at 9 KTS
Cloud Levels
  • Overcast at 6,000' AGL

Mar-22@
14:00 UTC

Mar-22 @ 14:00 UTC

Mar-22@
17:00 UTC

Mar-22 @ 17:00 UTC

FM221400 13016KT P6SM OVC025

From

From Standard forecast or significant change

Wind
  • 130° at 16 KTS
Cloud Levels
  • Overcast at 2,500' AGL

Mar-22@
17:00 UTC

Mar-22 @ 17:00 UTC

Mar-23@
00:00 UTC

Mar-23 @ 00:00 UTC

FM221700 14018KT P6SM OVC050

From

From Standard forecast or significant change

Wind
  • 140° at 18 KTS
Cloud Levels
  • Overcast at 5,000' AGL

Mar-23@
00:00 UTC

Mar-23 @ 00:00 UTC

Mar-23@
05:00 UTC

Mar-23 @ 05:00 UTC

FM230000 12016KT P6SM VCTS BKN025CB OVC050

From

From Standard forecast or significant change

Wind
  • 120° at 16 KTS
Conditions
Area Thunderstorm
Cloud Levels
  • Broken at 2,500' AGL
  • Overcast at 5,000' AGL

Mar-23@
05:00 UTC

Mar-23 @ 05:00 UTC

Mar-23@
12:00 UTC

Mar-23 @ 12:00 UTC

FM230500 12014KT P6SM BKN015

From

From Standard forecast or significant change

Wind
  • 120° at 14 KTS
Cloud Levels
  • Broken at 1,500' AGL